メインページ
METAR-TAF:

METAR-TAF

空港 :

メキシコ・シティ国際空港

メキシコシティ, メキシコ

緯度: 19-26N, 経度: 099-06W, 海抜: 2238m

現時点の気象観測

当レポートは9分前の11:21(UTC)に作成
西の風 5kt
気温 6°C
湿度 87%
気圧 1029 hPa
視程: 2.4km
高度1000ftの千切れ雲あり
高度2000ftの曇り
小雨, 靄

METAR: MMMX 141121Z 28005KT 1 1/2SM -RA BR BKN010 OVC020 06/04 A3039 TEMPO 1SM -RA BR RMK 8/5// TWR VSBY RA INTMNT

時間: 05:30 (11:30 UTC)

予報

当レポートは16分前の11:14(UTC)に作成
予報は14日の 11時(UTC)から 15日の 12時(UTC)まで有効
の風 5kt
視程: 4.8km
高度1000ftの千切れ雲あり
高度2000ftの曇り
小雨
14日の 11時(UTC)から 14日の 14時(UTC)まで一時的に
視程: 1.6km
高度700ftの千切れ雲あり
小雨, 靄
14日の 1400時(UTC)から
北/北東の風 10kt
視程: 6.4km
高度1000ftの千切れ雲あり
高度2000ftの曇り
煙霧
14日の 1500時(UTC)から
北/北東の風 10kt
視程: 8.0km
高度1200ftの千切れ雲あり
高度8000ftの曇り
煙霧
15日の 0100時(UTC)から
北/北東の風 8kt
視程: 10km
高度1500ftの雲は散在している
高度8000ftの千切れ雲あり

TAF: MMMX 141114Z 1411/1512 09005KT 3SM -RA BKN010 OVC020 TX18/1421Z TN04/1412Z TEMPO 1411/1414 1SM -RA BR BKN007 FM141400 03010KT 4SM HZ BKN010 OVC020 FM141500 03010KT 5SM HZ BKN012 OVC080 FM150100 03008KT P6SM SCT015 BKN080

4,000以上の空港の気象観測と天気予報(METAR報とTAF報)

利用可能な観測所は地図上に黄色い丸と赤い丸で示す。

丸の上にカーソルを重ねると観測所名を参照できる。

次にクリックすると気象観測と天気予報を参照できる。

マップの切り替え:黒色「×」印の緑ボタンをクリックして拡大、「-」印の緑ボタンをクリックして縮小、緑色の三角印をクリックして隣りの地図に切り替え


METAR-TAF: